Time;durP1;ratioP1;P1;durP2;ratioP2;P2;SDS_P1;SDS_P2;PMS_P1;PMS_P2;Temp;Humidity;BMP_temperature;BMP_pressure;BME280_temperature;BME280_humidity;BME280_pressure;Samples;Min_cycle;Max_cycle;Signal;HPM_P1;HPM_P2
2021/12/01 00:00:06;;;;;;;;;;;;;;;11.70;95.75;99812.28;4957475;28;19930;-84
2021/12/01 00:02:32;;;;;;;;;;;;;;;11.66;95.68;99808.19;4959604;28;19930;-84
2021/12/01 00:04:58;;;;;;;;;;;;;;;11.67;94.87;99789.31;4957292;28;19941;-84
2021/12/01 00:07:25;;;;;;;;;;;;;;;11.67;95.91;99786.63;4956993;28;19940;-84
2021/12/01 00:09:52;;;;;;;;;;;;;;;11.67;94.75;99773.25;4956173;28;19930;-84
2021/12/01 00:12:19;;;;;;;;;;;;;;;11.70;95.54;99766.78;4957301;28;19930;-84
2021/12/01 00:14:45;;;;;;;;;;;;;;;11.75;95.34;99748.47;4959306;28;19930;-84
2021/12/01 00:17:13;;;;;;;;;;;;;;;11.76;95.54;99743.97;4957603;28;19956;-84
2021/12/01 00:19:39;;;;;;;;;;;;;;;11.78;95.92;99750.84;4958458;28;20362;-84
2021/12/01 00:22:06;;;;;;;;;;;;;;;11.80;95.50;99735.50;4957837;28;19934;-84
2021/12/01 00:24:33;;;;;;;;;;;;;;;11.82;95.44;99720.13;4959536;28;19930;-84
2021/12/01 00:26:59;;;;;;;;;;;;;;;11.87;94.24;99730.41;4958972;28;19937;-84
2021/12/01 00:29:26;;;;;;;;;;;;;;;11.86;94.88;99712.66;4957670;28;21365;-84
2021/12/01 00:31:52;;;;;;;;;;;;;;;11.87;94.76;99727.75;4959412;28;19934;-84
2021/12/01 00:34:20;;;;;;;;;;;;;;;11.86;93.88;99701.97;4958899;28;19934;-84
2021/12/01 00:36:46;;;;;;;;;;;;;;;11.84;94.20;99717.31;4957645;28;19941;-84
2021/12/01 00:39:13;;;;;;;;;;;;;;;11.83;94.33;99697.75;4958611;28;19926;-84
2021/12/01 00:41:39;;;;;;;;;;;;;;;11.85;94.70;99686.91;4954012;28;19930;-84
2021/12/01 00:44:07;;;;;;;;;;;;;;;11.83;95.21;99689.72;4957158;28;19930;-84
2021/12/01 00:46:40;;;;;;;;;;;;;;;11.85;94.32;99695.78;4957499;28;19934;-84
2021/12/01 00:49:06;;;;;;;;;;;;;;;11.75;93.85;99683.41;4957253;28;20366;-84
2021/12/01 00:51:34;;;;;;;;;;;;;;;11.84;94.74;99685.22;4955445;28;19930;-84
2021/12/01 00:54:01;;;;;;;;;;;;;;;11.85;94.80;99676.22;4960643;28;20370;-84
2021/12/01 00:56:27;;;;;;;;;;;;;;;11.85;93.88;99663.66;4958639;28;19926;-84
2021/12/01 00:58:53;;;;;;;;;;;;;;;11.87;93.57;99683.09;4963801;28;19930;-84
2021/12/01 01:01:20;;;;;;;;;;;;;;;11.88;94.15;99671.41;4957454;28;20167;-84
2021/12/01 01:03:48;;;;;;;;;;;;;;;11.90;93.49;99662.41;4962517;28;19977;-84
2021/12/01 01:06:15;;;;;;;;;;;;;;;11.88;93.50;99655.38;4960040;28;19934;-84
2021/12/01 01:08:45;;;;;;;;;;;;;;;11.91;93.65;99651.56;4961249;28;19941;-84
2021/12/01 01:16:36;;;;;;;;;;;;;;;11.82;94.17;99639.03;4958645;28;19972;-84
2021/12/01 01:19:03;;;;;;;;;;;;;;;11.75;94.17;99620.06;4959893;28;19934;-84
2021/12/01 01:21:32;;;;;;;;;;;;;;;11.73;93.90;99613.19;4959877;28;20016;-84
2021/12/01 01:24:00;;;;;;;;;;;;;;;11.69;94.26;99609.94;4961307;28;19926;-84
2021/12/01 01:26:27;;;;;;;;;;;;;;;11.72;94.22;99617.69;4960336;28;20048;-84
2021/12/01 01:28:54;;;;;;;;;;;;;;;11.75;94.47;99604.00;4958760;28;19931;-84
2021/12/01 01:31:20;;;;;;;;;;;;;;;11.76;93.49;99604.88;4956584;28;20515;-84
2021/12/01 01:33:47;;;;;;;;;;;;;;;11.76;94.13;99611.06;4961682;28;19944;-84
2021/12/01 01:36:14;;;;;;;;;;;;;;;11.73;94.03;99589.94;4959215;28;19930;-84
2021/12/01 01:38:40;;;;;;;;;;;;;;;11.75;94.48;99595.97;4961206;28;19936;-84
2021/12/01 01:41:10;;;;;;;;;;;;;;;11.75;93.96;99592.47;4960424;28;19937;-84
2021/12/01 01:43:38;;;;;;;;;;;;;;;11.72;94.43;99553.50;4961000;28;19937;-84
2021/12/01 01:46:05;;;;;;;;;;;;;;;11.73;93.61;99539.09;4961972;28;19961;-84
2021/12/01 01:48:32;;;;;;;;;;;;;;;11.75;93.88;99552.34;4960394;28;19930;-84
2021/12/01 01:50:59;;;;;;;;;;;;;;;11.71;94.04;99534.91;4961551;28;19933;-83
2021/12/01 01:53:27;;;;;;;;;;;;;;;11.69;93.31;99541.25;4960904;28;19930;-84
2021/12/01 01:55:55;;;;;;;;;;;;;;;11.68;93.65;99544.09;4962361;28;19930;-84
2021/12/01 01:58:23;;;;;;;;;;;;;;;11.70;93.56;99534.09;4960171;28;19937;-84
2021/12/01 02:00:51;;;;;;;;;;;;;;;11.71;93.09;99526.88;4961359;28;19926;-84
2021/12/01 02:03:19;;;;;;;;;;;;;;;11.68;94.40;99520.84;4962303;28;20043;-84
2021/12/01 02:05:45;;;;;;;;;;;;;;;11.67;94.05;99516.47;4963120;28;19936;-84
2021/12/01 02:08:17;;;;;;;;;;;;;;;11.62;92.88;99513.44;4961994;28;19930;-84
2021/12/01 02:10:46;;;;;;;;;;;;;;;11.60;93.76;99507.41;4960590;28;20399;-84
2021/12/01 02:13:12;;;;;;;;;;;;;;;11.62;94.12;99478.66;4960584;28;19930;-84
2021/12/01 02:15:40;;;;;;;;;;;;;;;11.63;93.96;99474.97;4960682;28;20298;-84
2021/12/01 02:18:06;;;;;;;;;;;;;;;11.61;93.88;99457.41;4960674;28;19934;-84
2021/12/01 02:20:34;;;;;;;;;;;;;;;11.59;93.39;99470.94;4957834;28;20492;-85
2021/12/01 02:23:01;;;;;;;;;;;;;;;11.57;93.39;99450.69;4961650;28;20299;-84
2021/12/01 02:25:27;;;;;;;;;;;;;;;11.52;93.68;99447.63;4961509;28;20420;-84
2021/12/01 02:27:54;;;;;;;;;;;;;;;11.50;93.71;99445.94;4960594;28;19934;-84
2021/12/01 02:30:20;;;;;;;;;;;;;;;11.51;94.17;99422.72;4960688;28;19941;-84
2021/12/01 02:32:47;;;;;;;;;;;;;;;11.46;93.51;99428.50;4960244;28;19929;-85
2021/12/01 02:35:13;;;;;;;;;;;;;;;11.45;93.40;99421.50;4957070;28;19930;-84
2021/12/01 02:37:41;;;;;;;;;;;;;;;11.44;93.85;99418.97;4960058;28;20489;-85
2021/12/01 02:40:08;;;;;;;;;;;;;;;11.41;93.03;99398.69;4960092;28;19930;-84
2021/12/01 02:42:34;;;;;;;;;;;;;;;11.41;92.90;99411.25;4961176;28;19933;-84
2021/12/01 02:45:01;;;;;;;;;;;;;;;11.34;93.41;99389.63;4961078;28;19930;-84
2021/12/01 02:47:28;;;;;;;;;;;;;;;11.38;94.27;99398.19;4960274;28;20356;-84
2021/12/01 02:49:55;;;;;;;;;;;;;;;11.41;93.26;99387.16;4956675;28;19941;-85
2021/12/01 02:52:22;;;;;;;;;;;;;;;11.38;93.40;99377.63;4960909;28;19936;-84
2021/12/01 02:54:50;;;;;;;;;;;;;;;11.37;92.80;99359.06;4961756;28;20081;-83
2021/12/01 02:57:17;;;;;;;;;;;;;;;11.37;93.44;99351.06;4956795;28;19940;-84
2021/12/01 02:59:44;;;;;;;;;;;;;;;11.32;93.04;99346.16;4961781;28;19937;-84
2021/12/01 03:02:11;;;;;;;;;;;;;;;11.32;93.15;99347.97;4958201;28;20398;-84
2021/12/01 03:04:38;;;;;;;;;;;;;;;11.27;93.63;99335.09;4961521;28;19938;-84
2021/12/01 03:07:06;;;;;;;;;;;;;;;11.26;93.15;99318.22;4960590;28;20457;-84
2021/12/01 03:09:32;;;;;;;;;;;;;;;11.25;93.17;99337.06;4960988;28;20282;-84
2021/12/01 03:12:00;;;;;;;;;;;;;;;11.23;92.95;99317.69;4959622;28;19933;-84
2021/12/01 03:14:27;;;;;;;;;;;;;;;11.20;93.08;99308.13;4957961;28;19940;-83
2021/12/01 03:16:54;;;;;;;;;;;;;;;11.17;93.91;99295.06;4959778;28;20493;-84
2021/12/01 03:19:20;;;;;;;;;;;;;;;11.10;93.54;99294.00;4960466;28;20640;-82
2021/12/01 03:21:47;;;;;;;;;;;;;;;11.08;93.38;99278.13;4957979;28;19926;-82
2021/12/01 03:24:14;;;;;;;;;;;;;;;11.06;92.91;99264.06;4957981;28;19933;-82
2021/12/01 03:26:40;;;;;;;;;;;;;;;11.03;92.97;99255.53;4959322;28;20052;-82
2021/12/01 03:29:08;;;;;;;;;;;;;;;11.08;93.92;99243.38;4958653;28;20585;-81
2021/12/01 03:31:35;;;;;;;;;;;;;;;11.07;93.11;99232.84;4961804;28;19930;-81
2021/12/01 03:34:03;;;;;;;;;;;;;;;11.06;92.78;99237.34;4958439;28;20309;-82
2021/12/01 03:36:29;;;;;;;;;;;;;;;11.00;92.22;99240.66;4958338;28;19930;-82
2021/12/01 03:38:56;;;;;;;;;;;;;;;11.00;92.94;99219.28;4959470;28;20277;-82
2021/12/01 03:41:22;;;;;;;;;;;;;;;11.01;92.19;99212.91;4960443;28;19926;-82
2021/12/01 03:43:48;;;;;;;;;;;;;;;11.02;92.48;99198.59;4960645;28;19930;-81
2021/12/01 03:46:19;;;;;;;;;;;;;;;11.01;92.33;99204.91;4959058;28;19976;-81
2021/12/01 03:48:45;;;;;;;;;;;;;;;10.97;92.88;99202.69;4958350;28;20043;-81
2021/12/01 03:51:12;;;;;;;;;;;;;;;10.96;92.28;99199.16;4956344;28;20397;-81
2021/12/01 03:53:38;;;;;;;;;;;;;;;10.47;92.78;99119.47;4956259;28;19936;-82
2021/12/01 03:56:05;;;;;;;;;;;;;;;10.88;92.88;99191.09;4956380;28;20785;-82
2021/12/01 03:58:31;;;;;;;;;;;;;;;10.84;93.23;99181.72;4957508;28;19926;-82
2021/12/01 04:00:58;;;;;;;;;;;;;;;10.80;92.89;99175.00;4958815;28;19930;-82
2021/12/01 04:03:25;;;;;;;;;;;;;;;10.84;92.11;99163.03;4959682;28;20028;-81
2021/12/01 04:05:52;;;;;;;;;;;;;;;10.83;92.93;99147.97;4958150;28;19930;-82
2021/12/01 04:08:18;;;;;;;;;;;;;;;10.87;92.98;99144.03;4956265;28;20275;-82
2021/12/01 04:10:45;;;;;;;;;;;;;;;10.83;92.87;99139.97;4957390;28;19931;-82
2021/12/01 04:13:11;;;;;;;;;;;;;;;10.84;92.42;99160.34;4958228;28;19938;-82
2021/12/01 04:15:38;;;;;;;;;;;;;;;10.79;92.30;99122.56;4958319;28;19934;-82
2021/12/01 04:18:04;;;;;;;;;;;;;;;10.76;91.69;99125.56;4960724;28;19934;-82
2021/12/01 04:20:32;;;;;;;;;;;;;;;10.66;92.82;99104.28;4958710;28;19930;-81
2021/12/01 04:22:58;;;;;;;;;;;;;;;10.73;92.88;99102.66;4959109;28;19930;-81
2021/12/01 04:25:25;;;;;;;;;;;;;;;10.79;93.29;99106.56;4955102;28;20346;-81
2021/12/01 04:27:52;;;;;;;;;;;;;;;10.79;92.77;99091.34;4958051;28;19973;-82
2021/12/01 04:30:21;;;;;;;;;;;;;;;10.75;92.29;99111.34;4956004;28;19940;-82
2021/12/01 04:32:47;;;;;;;;;;;;;;;10.76;92.47;99093.53;4961462;28;20041;-82
2021/12/01 04:35:16;;;;;;;;;;;;;;;10.74;92.19;99088.34;4963418;28;19934;-81
2021/12/01 04:37:44;;;;;;;;;;;;;;;10.70;91.89;99086.97;4963810;28;20440;-82
2021/12/01 04:40:11;;;;;;;;;;;;;;;10.72;93.07;99076.97;4959329;28;19930;-82
2021/12/01 04:42:38;;;;;;;;;;;;;;;10.69;92.83;99075.44;4961272;28;19936;-82
2021/12/01 04:45:06;;;;;;;;;;;;;;;10.67;92.45;99069.41;4961555;28;20298;-81
2021/12/01 04:47:37;;;;;;;;;;;;;;;10.65;92.83;99059.88;4962851;28;19969;-81
2021/12/01 04:50:04;;;;;;;;;;;;;;;10.65;92.77;99058.03;4961710;28;20001;-82
2021/12/01 04:52:31;;;;;;;;;;;;;;;10.64;92.49;99072.41;4963225;28;19930;-82
2021/12/01 04:54:58;;;;;;;;;;;;;;;10.64;92.50;99035.03;4958897;28;19936;-82
2021/12/01 04:57:25;;;;;;;;;;;;;;;10.64;92.56;99043.03;4961911;28;19936;-82
2021/12/01 04:59:51;;;;;;;;;;;;;;;10.60;92.73;99032.81;4961825;28;19941;-82
2021/12/01 05:02:18;;;;;;;;;;;;;;;10.57;92.69;99035.78;4960288;28;19930;-81
2021/12/01 05:04:44;;;;;;;;;;;;;;;10.55;92.79;99022.59;4963072;28;19941;-81
2021/12/01 05:07:11;;;;;;;;;;;;;;;10.55;92.97;99025.28;4963054;28;19937;-81
2021/12/01 05:09:37;;;;;;;;;;;;;;;10.55;93.61;99019.94;4960186;28;20024;-82
2021/12/01 05:12:07;;;;;;;;;;;;;;;10.58;93.01;99019.59;4959124;28;20457;-82
2021/12/01 05:14:34;;;;;;;;;;;;;;;10.56;92.74;99021.59;4960089;28;19961;-82
2021/12/01 05:17:00;;;;;;;;;;;;;;;10.45;93.39;98968.47;4959540;28;20280;-82
2021/12/01 05:19:26;;;;;;;;;;;;;;;10.52;93.23;98991.69;4960404;28;19926;-82
2021/12/01 05:21:53;;;;;;;;;;;;;;;10.53;93.17;98979.22;4960247;28;19926;-82
2021/12/01 05:24:19;;;;;;;;;;;;;;;10.55;92.89;98998.59;4959742;28;19930;-81
2021/12/01 05:26:46;;;;;;;;;;;;;;;10.57;93.28;99003.75;4962808;28;19926;-81
2021/12/01 05:29:16;;;;;;;;;;;;;;;10.50;92.89;98995.53;4962360;28;19926;-82
2021/12/01 05:31:42;;;;;;;;;;;;;;;10.52;93.47;98986.38;4959161;28;19930;-82
2021/12/01 05:34:09;;;;;;;;;;;;;;;10.54;93.18;98994.22;4962120;28;19930;-81
2021/12/01 05:36:35;;;;;;;;;;;;;;;10.57;93.81;98987.72;4963228;28;19934;-81
2021/12/01 05:39:02;;;;;;;;;;;;;;;10.58;93.59;98995.59;4964092;28;19926;-81
2021/12/01 05:41:28;;;;;;;;;;;;;;;10.55;93.30;98981.72;4956911;28;19941;-82
2021/12/01 05:43:55;;;;;;;;;;;;;;;10.53;94.08;98997.91;4962852;28;19934;-82
2021/12/01 05:46:23;;;;;;;;;;;;;;;10.52;93.88;98991.69;4962809;28;19930;-82
2021/12/01 05:48:51;;;;;;;;;;;;;;;10.50;93.66;98980.34;4963526;28;20021;-82
2021/12/01 05:51:18;;;;;;;;;;;;;;;10.52;93.46;98974.84;4959397;28;19934;-83
2021/12/01 05:53:44;;;;;;;;;;;;;;;10.52;94.31;98970.34;4961835;28;19933;-82
2021/12/01 05:56:11;;;;;;;;;;;;;;;10.54;94.31;98970.19;4962591;28;20477;-82
2021/12/01 05:58:37;;;;;;;;;;;;;;;10.54;94.10;98953.34;4960474;28;19940;-82
2021/12/01 06:01:04;;;;;;;;;;;;;;;10.52;94.13;98967.69;4960807;28;20009;-82
2021/12/01 06:03:32;;;;;;;;;;;;;;;10.52;94.43;98958.84;4961505;28;20564;-82
2021/12/01 06:05:58;;;;;;;;;;;;;;;10.52;93.80;98962.34;4961446;28;20362;-82
2021/12/01 06:08:25;;;;;;;;;;;;;;;10.52;94.31;98974.84;4962034;28;19964;-84
2021/12/01 06:10:51;;;;;;;;;;;;;;;10.56;94.46;98952.19;4957044;28;19934;-84
2021/12/01 06:13:20;;;;;;;;;;;;;;;10.55;94.21;98945.19;4957396;28;23751;-84
2021/12/01 06:15:46;;;;;;;;;;;;;;;10.57;94.20;98948.53;4962090;28;19934;-85
2021/12/01 06:18:13;;;;;;;;;;;;;;;10.55;94.29;98941.66;4959185;28;19938;-84
2021/12/01 06:20:40;;;;;;;;;;;;;;;10.55;94.13;98933.66;4958973;28;19934;-84
2021/12/01 06:23:07;;;;;;;;;;;;;;;10.51;94.92;98936.66;4958447;28;20294;-84
2021/12/01 06:25:33;;;;;;;;;;;;;;;10.52;94.04;98924.16;4959858;28;19937;-84
2021/12/01 06:28:00;;;;;;;;;;;;;;;10.45;94.83;98918.63;4960802;28;20440;-84
2021/12/01 06:30:27;;;;;;;;;;;;;;;10.44;94.84;98921.44;4954372;28;19930;-84
2021/12/01 06:32:54;;;;;;;;;;;;;;;10.54;94.53;98932.00;4960767;28;20314;-85
2021/12/01 06:35:20;;;;;;;;;;;;;;;10.54;94.75;98911.47;4956308;28;19930;-84
2021/12/01 06:37:50;;;;;;;;;;;;;;;10.56;94.58;98916.66;4954679;28;19931;-84
2021/12/01 06:40:17;;;;;;;;;;;;;;;10.53;94.42;98923.16;4959429;28;19940;-84
2021/12/01 06:42:43;;;;;;;;;;;;;;;10.54;94.96;98916.81;4958370;28;20535;-84
2021/12/01 06:45:11;;;;;;;;;;;;;;;10.57;95.32;98916.50;4955484;28;19932;-83
2021/12/01 06:47:38;;;;;;;;;;;;;;;10.59;94.82;98898.50;4958569;28;19937;-85
2021/12/01 06:50:05;;;;;;;;;;;;;;;10.64;94.71;98893.53;4957505;28;19937;-84
2021/12/01 06:52:32;;;;;;;;;;;;;;;10.66;94.96;98890.66;4958099;28;19930;-84
2021/12/01 06:55:00;;;;;;;;;;;;;;;10.64;94.98;98898.88;4960035;28;19985;-84
2021/12/01 06:57:27;;;;;;;;;;;;;;;10.65;94.91;98873.00;4958949;28;20277;-84
2021/12/01 06:59:53;;;;;;;;;;;;;;;10.67;95.11;98893.19;4959208;28;19940;-84
2021/12/01 07:02:20;;;;;;;;;;;;;;;10.67;94.77;98882.50;4959836;28;20417;-84
2021/12/01 07:04:46;;;;;;;;;;;;;;;10.67;95.21;98871.81;4960854;28;19941;-84
2021/12/01 07:07:13;;;;;;;;;;;;;;;10.69;95.24;98864.50;4960853;28;19930;-84
2021/12/01 07:09:39;;;;;;;;;;;;;;;10.68;94.94;98870.84;4958920;28;19936;-83
2021/12/01 07:12:07;;;;;;;;;;;;;;;10.72;94.83;98866.03;4958059;28;19926;-83
2021/12/01 07:14:34;;;;;;;;;;;;;;;10.69;95.22;98864.50;4960583;28;19936;-84
2021/12/01 07:17:00;;;;;;;;;;;;;;;10.69;95.13;98859.16;4958427;28;19926;-84
2021/12/01 07:19:27;;;;;;;;;;;;;;;10.73;95.16;98845.50;4958181;28;20038;-83
2021/12/01 07:21:53;;;;;;;;;;;;;;;10.72;94.84;98842.00;4961170;28;20383;-84
2021/12/01 07:24:20;;;;;;;;;;;;;;;10.76;95.03;98835.31;4959578;28;19930;-84
2021/12/01 07:26:46;;;;;;;;;;;;;;;10.80;94.81;98844.69;4961235;28;19926;-84
2021/12/01 07:29:15;;;;;;;;;;;;;;;10.80;94.66;98850.03;4960856;28;19927;-84
2021/12/01 07:31:41;;;;;;;;;;;;;;;10.79;94.95;98842.16;4957068;28;19937;-85
2021/12/01 07:34:08;;;;;;;;;;;;;;;10.81;95.38;98842.84;4957868;28;19930;-85
2021/12/01 07:36:34;;;;;;;;;;;;;;;10.81;95.18;98829.50;4959085;28;19934;-84
2021/12/01 07:39:01;;;;;;;;;;;;;;;10.83;94.74;98835.50;4959005;28;20276;-85
2021/12/01 07:41:28;;;;;;;;;;;;;;;10.88;94.93;98850.03;4959344;28;20400;-85
2021/12/01 07:43:54;;;;;;;;;;;;;;;10.88;95.30;98863.41;4960713;28;20024;-85
2021/12/01 07:46:22;;;;;;;;;;;;;;;10.91;95.18;98867.59;4956013;28;20856;-84
2021/12/01 07:48:49;;;;;;;;;;;;;;;10.90;94.52;98871.25;4961973;28;20294;-85
2021/12/01 07:51:15;;;;;;;;;;;;;;;10.89;94.50;98873.09;4956197;28;21263;-83
2021/12/01 07:53:42;;;;;;;;;;;;;;;10.87;94.89;98872.44;4955562;28;20091;-85
2021/12/01 07:56:08;;;;;;;;;;;;;;;10.88;94.26;98863.41;4959871;28;19938;-85
2021/12/01 07:58:34;;;;;;;;;;;;;;;10.85;94.50;98866.41;4957197;28;19932;-84
2021/12/01 08:01:01;;;;;;;;;;;;;;;10.88;94.56;98878.59;4957008;28;20400;-85
2021/12/01 08:03:29;;;;;;;;;;;;;;;10.93;94.69;98862.94;4957664;28;20366;-85
2021/12/01 08:05:55;;;;;;;;;;;;;;;10.88;93.72;98876.75;4959580;28;20302;-84
2021/12/01 08:08:22;;;;;;;;;;;;;;;10.89;93.74;98880.28;4961212;28;19930;-84
2021/12/01 08:10:49;;;;;;;;;;;;;;;10.94;93.51;98893.97;4962311;28;19934;-84
2021/12/01 08:13:16;;;;;;;;;;;;;;;10.94;92.25;98896.63;4962294;28;19926;-84
2021/12/01 08:15:45;;;;;;;;;;;;;;;10.94;92.46;98879.78;4961208;28;20382;-85
2021/12/01 08:18:11;;;;;;;;;;;;;;;10.85;89.97;98890.44;4961151;28;19937;-84
2021/12/01 08:20:39;;;;;;;;;;;;;;;10.80;90.24;98887.41;4963050;28;19930;-84
2021/12/01 08:23:05;;;;;;;;;;;;;;;10.76;89.73;98890.56;4960759;28;19932;-84
2021/12/01 08:25:33;;;;;;;;;;;;;;;10.71;89.24;98886.53;4963546;28;19926;-84
2021/12/01 08:28:02;;;;;;;;;;;;;;;10.68;88.59;98896.69;4963898;28;19926;-84
2021/12/01 08:30:28;;;;;;;;;;;;;;;10.65;88.79;98905.03;4964072;28;20075;-84
2021/12/01 08:32:55;;;;;;;;;;;;;;;10.61;88.05;98904.50;4963379;28;19941;-84
2021/12/01 08:35:22;;;;;;;;;;;;;;;10.55;87.78;98894.47;5177666;23;19988;-81
2021/12/01 08:37:49;;;;;;;;;;;;;;;10.53;88.13;98907.16;4955939;28;20259;-82
2021/12/01 08:40:18;;;;;;;;;;;;;;;10.57;89.02;98900.50;4962850;28;19939;-82
2021/12/01 08:42:45;;;;;;;;;;;;;;;10.47;86.35;98910.41;4963029;28;20025;-81
2021/12/01 08:45:11;;;;;;;;;;;;;;;10.47;87.50;98919.28;4964328;28;20483;-82
2021/12/01 08:47:38;;;;;;;;;;;;;;;10.42;87.05;98918.09;4965256;28;19930;-81
2021/12/01 08:50:05;;;;;;;;;;;;;;;10.47;88.05;98915.75;4961792;28;21086;-82
2021/12/01 08:52:32;;;;;;;;;;;;;;;10.47;87.24;98921.09;4963152;28;19926;-82
2021/12/01 08:55:00;;;;;;;;;;;;;;;10.48;87.27;98923.63;4962050;28;19952;-82
2021/12/01 08:57:26;;;;;;;;;;;;;;;10.49;87.71;98925.31;4964155;28;20326;-82
2021/12/01 08:59:53;;;;;;;;;;;;;;;10.55;88.32;98925.66;4962528;28;19931;-82
2021/12/01 09:02:19;;;;;;;;;;;;;;;10.56;88.12;98928.16;4962993;28;20104;-82
2021/12/01 09:04:49;;;;;;;;;;;;;;;10.57;87.97;98937.00;4961073;28;19941;-82
2021/12/01 09:07:16;;;;;;;;;;;;;;;10.59;87.84;98938.53;4965962;28;19985;-82
2021/12/01 09:09:42;;;;;;;;;;;;;;;10.55;86.99;98941.66;4964286;28;20009;-82
2021/12/01 09:12:10;;;;;;;;;;;;;;;10.56;87.81;98940.69;4962260;28;19936;-82
2021/12/01 09:14:37;;;;;;;;;;;;;;;10.57;87.43;98939.66;4962970;28;19952;-82
2021/12/01 09:17:03;;;;;;;;;;;;;;;10.55;87.31;98945.19;4963160;28;20224;-82
2021/12/01 09:19:30;;;;;;;;;;;;;;;10.51;86.74;98952.69;4963344;28;20368;-82
2021/12/01 09:21:56;;;;;;;;;;;;;;;10.50;86.93;98955.50;4963348;28;19976;-81
2021/12/01 09:24:23;;;;;;;;;;;;;;;10.46;86.48;98960.31;4964912;28;19946;-82
2021/12/01 09:26:49;;;;;;;;;;;;;;;10.44;87.33;98970.31;4960534;28;19934;-82
2021/12/01 09:29:17;;;;;;;;;;;;;;;10.45;87.25;98981.81;4961571;28;19941;-82
2021/12/01 09:31:44;;;;;;;;;;;;;;;10.41;87.10;98989.28;4961857;28;19940;-82
2021/12/01 09:39:34;;;;;;;;;;;;;;;10.33;87.81;98987.41;5020166;23;19966;-93
2021/12/01 09:42:03;;;;;;;;;;;;;;;10.35;87.76;98975.75;4965918;28;20001;-92
2021/12/01 09:44:33;;;;;;;;;;;;;;;10.37;87.72;98979.91;4962864;28;19930;-92
2021/12/01 09:47:00;;;;;;;;;;;;;;;10.33;87.44;98979.38;4962993;28;20064;-92
2021/12/01 09:49:27;;;;;;;;;;;;;;;10.30;87.01;98965.47;4965374;28;19931;-92
2021/12/01 09:51:53;;;;;;;;;;;;;;;10.27;86.87;98977.31;4969462;28;20017;-91
2021/12/01 09:54:22;;;;;;;;;;;;;;;10.23;86.75;98988.47;4966830;28;19937;-92
2021/12/01 09:56:49;;;;;;;;;;;;;;;10.19;86.75;98981.72;4966020;28;19934;-92
2021/12/01 09:59:16;;;;;;;;;;;;;;;10.21;87.17;98990.41;4966562;28;19930;-92
2021/12/01 10:01:46;;;;;;;;;;;;;;;10.21;87.37;98987.75;4964256;28;20278;-91
2021/12/01 10:04:13;;;;;;;;;;;;;;;10.21;87.12;98995.75;4965974;28;19970;-91
2021/12/01 10:06:39;;;;;;;;;;;;;;;10.22;87.19;98997.44;4964260;28;19980;-91
2021/12/01 10:09:07;;;;;;;;;;;;;;;10.22;87.16;98992.94;4965335;28;19953;-91
2021/12/01 10:11:41;;;;;;;;;;;;;;;10.20;86.67;99000.25;4965229;28;19938;-92
2021/12/01 10:14:08;;;;;;;;;;;;;;;10.15;86.61;99002.53;4966591;28;20025;-92
2021/12/01 10:16:39;;;;;;;;;;;;;;;10.14;87.21;98996.38;5206428;23;19922;-88
2021/12/01 10:19:12;;;;;;;;;;;;;;;10.14;87.30;98987.53;4971249;28;20052;-88
2021/12/01 10:21:42;;;;;;;;;;;;;;;10.13;87.19;98980.53;4980900;28;19910;-89
2021/12/01 10:24:10;;;;;;;;;;;;;;;10.22;87.92;98989.44;4992716;28;19950;-89
2021/12/01 10:26:39;;;;;;;;;;;;;;;10.30;88.45;98968.16;4995667;28;19973;-89
2021/12/01 10:29:07;;;;;;;;;;;;;;;10.35;87.73;98965.91;4990387;28;19926;-89
2021/12/01 10:31:35;;;;;;;;;;;;;;;10.42;88.39;98969.63;4993773;28;19954;-89
2021/12/01 10:34:20;;;;;;;;;;;;;;;10.44;87.38;98974.81;4996195;28;19914;-89
2021/12/01 10:36:47;;;;;;;;;;;;;;;10.43;86.92;98973.13;4991776;28;19933;-89
2021/12/01 10:39:13;;;;;;;;;;;;;;;10.42;86.88;98974.97;4994003;28;19941;-89
2021/12/01 10:41:41;;;;;;;;;;;;;;;10.44;86.87;98977.47;4997180;28;19957;-89
2021/12/01 10:44:12;;;;;;;;;;;;;;;10.44;86.62;98969.47;4996516;28;19930;-89
2021/12/01 10:46:46;;;;;;;;;;;;;;;10.45;86.60;98974.66;4993635;28;19934;-89
2021/12/01 10:49:13;;;;;;;;;;;;;;;10.46;86.44;98964.81;4995172;28;20005;-89
2021/12/01 10:51:43;;;;;;;;;;;;;;;10.45;86.06;98965.78;4991593;28;19964;-89
2021/12/01 10:54:14;;;;;;;;;;;;;;;10.43;85.55;98970.44;4994974;28;20021;-89
2021/12/01 10:56:40;;;;;;;;;;;;;;;10.43;85.07;98975.78;4990835;28;19981;-89
2021/12/01 10:59:11;;;;;;;;;;;;;;;10.48;86.46;98976.16;4993938;28;19990;-89
2021/12/01 11:01:38;;;;;;;;;;;;;;;10.47;85.20;98978.00;4992601;28;19930;-89
2021/12/01 11:04:04;;;;;;;;;;;;;;;10.49;85.67;98973.34;4994515;28;19934;-89
2021/12/01 11:06:34;;;;;;;;;;;;;;;10.55;86.17;98977.22;4992808;28;19950;-89
2021/12/01 11:09:02;;;;;;;;;;;;;;;10.58;85.13;98971.56;4993799;28;19976;-89
2021/12/01 11:11:36;;;;;;;;;;;;;;;10.57;84.73;98971.72;4997562;28;19986;-89
2021/12/01 11:14:08;;;;;;;;;;;;;;;10.56;83.73;98978.88;4990554;28;19926;-89
2021/12/01 11:16:37;;;;;;;;;;;;;;;10.56;84.10;98978.06;4993892;28;19986;-89
2021/12/01 11:19:03;;;;;;;;;;;;;;;10.57;84.26;98979.72;4992718;28;19994;-89
2021/12/01 11:21:31;;;;;;;;;;;;;;;10.51;82.35;98968.69;4994802;28;19911;-89
2021/12/01 11:24:01;;;;;;;;;;;;;;;10.51;82.98;98979.38;4994849;28;19950;-89
2021/12/01 11:26:29;;;;;;;;;;;;;;;10.54;83.50;98980.03;4996642;28;19914;-89
2021/12/01 11:28:56;;;;;;;;;;;;;;;10.56;83.78;98968.22;4991063;28;19946;-89
2021/12/01 11:31:26;;;;;;;;;;;;;;;10.56;82.77;98965.53;4991936;28;19985;-89
2021/12/01 11:33:55;;;;;;;;;;;;;;;10.57;82.73;98967.22;4988989;28;19973;-89
2021/12/01 11:36:22;;;;;;;;;;;;;;;10.57;83.41;98974.38;4988088;28;19993;-89
2021/12/01 11:38:50;;;;;;;;;;;;;;;10.55;82.78;98981.72;4991195;28;20020;-90
2021/12/01 11:41:16;;;;;;;;;;;;;;;10.51;81.86;98973.19;4989924;28;19927;-90
2021/12/01 11:43:44;;;;;;;;;;;;;;;10.52;82.19;98974.84;4987311;28;19984;-89
2021/12/01 11:46:11;;;;;;;;;;;;;;;10.52;82.57;98972.19;4989388;28;19927;-90
2021/12/01 11:48:40;;;;;;;;;;;;;;;10.56;82.92;98968.22;4991099;28;20484;-90
2021/12/01 11:51:15;;;;;;;;;;;;;;;10.53;81.81;98976.56;4985181;28;19934;-90
2021/12/01 11:53:42;;;;;;;;;;;;;;;10.52;81.61;98978.34;4986763;28;19941;-90
2021/12/01 11:56:13;;;;;;;;;;;;;;;10.52;81.71;98974.84;4989664;28;19934;-90
2021/12/01 11:59:02;;;;;;;;;;;;;;;10.48;81.07;98968.16;4994741;28;20357;-90
2021/12/01 12:01:35;;;;;;;;;;;;;;;10.52;81.73;98967.69;4996903;28;19949;-89
2021/12/01 12:04:14;;;;;;;;;;;;;;;10.54;81.59;98980.88;4998403;28;19954;-90
2021/12/01 12:06:45;;;;;;;;;;;;;;;10.54;81.72;98972.03;4992565;28;19945;-90
2021/12/01 12:09:12;;;;;;;;;;;;;;;10.54;81.97;98974.72;5000945;28;19918;-90
2021/12/01 12:11:42;;;;;;;;;;;;;;;10.49;81.99;98969.81;4992660;28;19953;-90
2021/12/01 12:14:13;;;;;;;;;;;;;;;10.48;82.23;98965.50;4991050;28;19985;-90
2021/12/01 12:16:41;;;;;;;;;;;;;;;10.46;82.31;98972.81;4988991;28;19934;-90
2021/12/01 12:19:07;;;;;;;;;;;;;;;10.47;82.72;98971.81;4989850;28;19930;-89
2021/12/01 12:21:41;;;;;;;;;;;;;;;10.47;82.54;98963.81;4990669;28;19945;-89
2021/12/01 12:24:10;;;;;;;;;;;;;;;10.45;82.43;98963.13;4991866;28;19978;-90
2021/12/01 12:26:38;;;;;;;;;;;;;;;10.48;82.86;98966.31;4989608;28;19955;-89
2021/12/01 12:29:06;;;;;;;;;;;;;;;10.46;81.93;98964.81;4990821;28;19916;-89
2021/12/01 12:31:35;;;;;;;;;;;;;;;10.44;82.12;98959.63;4990327;28;19926;-89
2021/12/01 12:34:04;;;;;;;;;;;;;;;10.45;82.10;98961.31;4995793;28;19933;-89
2021/12/01 12:36:38;;;;;;;;;;;;;;;10.46;82.35;98973.66;4993936;28;19982;-89
2021/12/01 13:20:03;;;;;;;;;;;;;;;10.48;80.34;98984.19;4976905;28;20016;-93
2021/12/01 13:22:30;;;;;;;;;;;;;;;10.50;80.70;98976.84;4973739;28;20309;-93
2021/12/01 13:31:03;;;;;;;;;;;;;;;10.42;79.66;98996.31;4980201;28;19937;-93
2021/12/01 14:23:06;;;;;;;;;;;;;;;10.40;80.19;99029.50;4968468;28;19937;-92
2021/12/01 14:25:33;;;;;;;;;;;;;;;10.39;80.86;99025.13;4960148;28;20285;-92
2021/12/01 14:28:04;;;;;;;;;;;;;;;10.38;80.90;99039.47;4963700;28;19936;-91
2021/12/01 14:30:33;;;;;;;;;;;;;;;10.38;81.21;99044.81;4960266;28;20433;-90
2021/12/01 14:33:01;;;;;;;;;;;;;;;10.38;81.57;99059.00;4959756;28;19926;-90
2021/12/01 14:35:27;;;;;;;;;;;;;;;10.35;81.15;99067.31;4958285;28;20331;-90